»·PEaware :: N7375Q KLWL-KMLF

N7375Q :: KLWL-KMLF

FLIGHT INFORMATION

Flight Status: Arrived
Operator: Privately registered:
United States
More flights under this callsign
Pilot: Ion I. (24133)
Aircraft: SOCATA TBM-900
(TBM9)
More flights by this aircraft type
Origin: KLWL Wells Mun/Harriet
United States
Destination: KMLF Milford Mun
United States
More flights between these airports :: More routes between these airports
Route: SPRUZ GDGET
File this flight plan on PilotEdge
Remarks:
Altitude:
(Current/Filed)
31,000ft
Speed:
(Current/Filed)
315kts
Departed: 21-Aug-20 09:28 AM
Arrived: 21-Aug-20 10:17 AM
Distance/Time
Traveled:
184nm/0:49
Distance/Time
To Go:
Arrived

Flight Plot

Page will automatically refresh every two minutes.

Flight plan parsing failed; only flown route is shown


Map Options




Map Legend


Flown Route
Filed Route
Departure Airport
Arrival Airport
Navaid (VOR, NDB)
Fix

Horizontal Profiles

Position Reports

Time Latitude Longitude Heading Altitude Ground
Speed
21-Aug-20 09:16 41.115685 -114.926958 190 5734ft 0kts
21-Aug-20 09:17 41.115685 -114.926958 190 5734ft 0kts
21-Aug-20 09:18 41.115685 -114.926958 190 5734ft 0kts
21-Aug-20 09:19 41.115685 -114.926958 190 5734ft 0kts
21-Aug-20 09:20 41.115685 -114.926958 190 5734ft 0kts
21-Aug-20 09:21 41.115630 -114.926959 169 5734ft 1kts
21-Aug-20 09:22 41.115170 -114.925178 67 5739ft 6kts
21-Aug-20 09:23 41.116423 -114.926070 280 5735ft 13kts
21-Aug-20 09:24 41.116950 -114.932041 190 5712ft 6kts
21-Aug-20 09:25 41.116911 -114.932220 334 5712ft 0kts
21-Aug-20 09:26 41.117286 -114.931975 100 5711ft 0kts
21-Aug-20 09:27 41.113352 -114.901240 100 6942ft 112kts
21-Aug-20 09:28 41.094371 -114.867645 190 8996ft 157kts
21-Aug-20 09:29 41.048461 -114.879734 192 11138ft 176kts
21-Aug-20 09:30 40.999769 -114.888681 192 13149ft 180kts
21-Aug-20 09:31 40.949354 -114.897728 192 15145ft 186kts
21-Aug-20 09:32 40.896810 -114.907426 192 17165ft 196kts
21-Aug-20 09:33 40.842170 -114.917578 192 19181ft 202kts
21-Aug-20 09:34 40.785265 -114.920829 184 21193ft 210kts
21-Aug-20 09:35 40.726642 -114.920568 184 23191ft 212kts
21-Aug-20 09:36 40.667934 -114.914667 158 25190ft 227kts
21-Aug-20 09:37 40.610523 -114.880797 159 27217ft 229kts
21-Aug-20 09:38 40.552094 -114.846866 159 29216ft 233kts
21-Aug-20 09:39 40.492329 -114.812218 159 31118ft 239kts
21-Aug-20 09:40 40.424629 -114.773060 158 31138ft 288kts
21-Aug-20 09:41 40.348327 -114.729000 157 31124ft 307kts
21-Aug-20 09:42 40.269519 -114.683627 157 31135ft 312kts
21-Aug-20 09:43 40.189752 -114.637849 157 31168ft 314kts
21-Aug-20 09:44 40.109865 -114.592104 157 31183ft 314kts
21-Aug-20 09:45 40.029640 -114.546289 157 31182ft 314kts
21-Aug-20 09:46 39.949504 -114.500654 157 31182ft 314kts
21-Aug-20 09:47 39.869297 -114.455077 157 31184ft 314kts
21-Aug-20 09:48 39.789168 -114.409670 157 31184ft 315kts
21-Aug-20 09:49 39.708765 -114.364220 157 31183ft 315kts
21-Aug-20 09:50 39.628880 -114.319181 157 31194ft 314kts
21-Aug-20 09:51 39.548932 -114.274218 157 31217ft 314kts
21-Aug-20 09:52 39.468674 -114.229195 157 31227ft 314kts
21-Aug-20 09:53 39.388337 -114.184243 157 31213ft 315kts
21-Aug-20 09:54 39.308023 -114.139414 157 31199ft 315kts
21-Aug-20 09:55 39.227655 -114.094668 157 31185ft 315kts
21-Aug-20 09:56 39.147058 -114.049909 157 31171ft 315kts
21-Aug-20 09:57 39.066665 -114.005372 157 31158ft 315kts
21-Aug-20 09:58 38.985922 -113.960755 157 31152ft 316kts
21-Aug-20 09:59 38.904990 -113.916140 157 31147ft 317kts
21-Aug-20 10:00 38.823896 -113.871565 157 31147ft 317kts
21-Aug-20 10:01 38.759618 -113.797670 118 31154ft 322kts
21-Aug-20 10:02 38.717539 -113.696348 119 31147ft 323kts
21-Aug-20 10:03 38.673878 -113.592837 118 30042ft 344kts
21-Aug-20 10:04 38.627385 -113.483031 118 28064ft 357kts
21-Aug-20 10:05 38.578901 -113.368926 118 25375ft 374kts
21-Aug-20 10:06 38.529274 -113.252575 119 22360ft 371kts
21-Aug-20 10:07 38.480540 -113.138721 119 19331ft 360kts
21-Aug-20 10:08 38.466745 -113.020507 91 16297ft 325kts
21-Aug-20 10:09 38.493790 -112.923928 18 13191ft 308kts
21-Aug-20 10:10 38.576071 -112.913860 342 10166ft 289kts
21-Aug-20 10:11 38.583530 -112.987725 205 7080ft 249kts
21-Aug-20 10:12 38.529213 -113.009448 195 6611ft 148kts
21-Aug-20 10:13 38.498391 -113.011782 183 6385ft 95kts
21-Aug-20 10:14 38.471277 -113.012674 182 5862ft 99kts
21-Aug-20 10:15 38.444698 -113.012991 180 5281ft 89kts
21-Aug-20 10:16 38.424725 -113.013322 180 5036ft 32kts
21-Aug-20 10:17 38.419602 -113.011820 120 5038ft 11kts
21-Aug-20 10:18 38.419141 -113.011444 29 5037ft 0kts
21-Aug-20 10:19 38.419141 -113.011444 29 5037ft 0kts
21-Aug-20 10:20 38.419141 -113.011444 29 5037ft 0kts
21-Aug-20 10:21 38.419141 -113.011444 29 5037ft 0kts
21-Aug-20 10:22 38.419141 -113.011444 29 5037ft 0kts

Navigation Log

Ident Type
Flight plan parsing failed, navigation log unavailable